Time;durP1;ratioP1;P1;durP2;ratioP2;P2;SDS_P1;SDS_P2;PMS_P1;PMS_P2;Temp;Humidity;BMP_temperature;BMP_pressure;BME280_temperature;BME280_humidity;BME280_pressure;Samples;Min_cycle;Max_cycle;Signal;HPM_P1;HPM_P2
2022/08/19 00:02:02;;;;;;;;;;;25.00;81.70;;;;;;5095061;28;19915;-62
2022/08/19 00:04:31;;;;;;;;;;;25.10;81.80;;;;;;5095236;28;19944;-62
2022/08/19 00:06:56;;;;;;;;;;;25.00;81.80;;;;;;5094793;28;20386;-62
2022/08/19 00:09:23;;;;;;;;;;;25.00;81.70;;;;;;5095237;28;19951;-62
2022/08/19 00:11:49;;;;;;;;;;;25.10;81.80;;;;;;5095102;28;19934;-62
2022/08/19 00:14:15;;;;;;;;;;;25.10;81.80;;;;;;5076892;28;19961;-62
2022/08/19 00:16:42;;;;;;;;;;;25.10;81.80;;;;;;5094935;28;19912;-62
2022/08/19 00:19:08;;;;;;;;;;;25.10;81.70;;;;;;5094654;28;20351;-62
2022/08/19 00:21:39;;;;;;;;;;;25.10;81.80;;;;;;5094915;28;20011;-62
2022/08/19 00:24:08;;;;;;;;;;;25.00;81.70;;;;;;5094926;28;19908;-62
2022/08/19 00:26:35;;;;;;;;;;;25.10;81.80;;;;;;5094812;28;20273;-62
2022/08/19 00:29:01;;;;;;;;;;;25.00;81.70;;;;;;5094359;28;19957;-62
2022/08/19 00:31:27;;;;;;;;;;;25.00;81.70;;;;;;5094669;28;19998;-62
2022/08/19 00:33:53;;;;;;;;;;;25.00;81.80;;;;;;5094654;28;20347;-62
2022/08/19 00:36:19;;;;;;;;;;;25.00;81.70;;;;;;5094618;28;20418;-62
2022/08/19 00:38:45;;;;;;;;;;;25.00;81.70;;;;;;5094492;28;19957;-62
2022/08/19 00:41:13;;;;;;;;;;;25.00;81.60;;;;;;5094461;28;20286;-62
2022/08/19 00:43:39;;;;;;;;;;;25.00;81.70;;;;;;5094169;28;20436;-62
2022/08/19 00:46:04;;;;;;;;;;;25.10;81.70;;;;;;5076382;28;19994;-62
2022/08/19 00:48:31;;;;;;;;;;;25.10;81.80;;;;;;5094111;28;19951;-62
2022/08/19 00:50:57;;;;;;;;;;;25.00;81.80;;;;;;5094716;28;19909;-62
2022/08/19 00:53:23;;;;;;;;;;;25.00;81.80;;;;;;5094412;28;20007;-62
2022/08/19 00:55:50;;;;;;;;;;;25.00;81.80;;;;;;5076252;28;20262;-62
2022/08/19 00:58:17;;;;;;;;;;;25.10;81.80;;;;;;5094080;28;19918;-62
2022/08/19 01:00:42;;;;;;;;;;;25.10;81.80;;;;;;5094356;28;19908;-62
2022/08/19 01:03:10;;;;;;;;;;;25.00;81.80;;;;;;5093255;28;19927;-62
2022/08/19 01:05:36;;;;;;;;;;;25.00;81.80;;;;;;5094237;28;19915;-62
2022/08/19 01:08:03;;;;;;;;;;;25.00;82.30;;;;;;5076099;28;20309;-62
2022/08/19 01:10:31;;;;;;;;;;;25.00;81.70;;;;;;5094179;28;19912;-62
2022/08/19 01:12:57;;;;;;;;;;;25.10;81.80;;;;;;5094430;28;20441;-62
2022/08/19 01:15:26;;;;;;;;;;;25.00;81.80;;;;;;5093902;28;20374;-62
2022/08/19 01:17:52;;;;;;;;;;;25.00;81.80;;;;;;5075642;28;20348;-62
2022/08/19 01:20:20;;;;;;;;;;;25.00;81.80;;;;;;5094343;28;19919;-62
2022/08/19 01:22:51;;;;;;;;;;;25.00;81.80;;;;;;5075923;28;19909;-62
2022/08/19 01:25:17;;;;;;;;;;;25.00;81.80;;;;;;5094050;28;20278;-62
2022/08/19 01:27:45;;;;;;;;;;;25.00;81.80;;;;;;5094024;28;19908;-62
2022/08/19 01:30:15;;;;;;;;;;;25.00;81.80;;;;;;5075878;28;19953;-62
2022/08/19 01:32:42;;;;;;;;;;;25.00;81.80;;;;;;5093696;28;19944;-62
2022/08/19 01:35:09;;;;;;;;;;;25.00;81.80;;;;;;5093952;28;19916;-62
2022/08/19 01:37:42;;;;;;;;;;;25.00;81.80;;;;;;5093640;28;20339;-62
2022/08/19 01:40:07;;;;;;;;;;;25.00;81.90;;;;;;5094246;28;20376;-62
2022/08/19 01:42:34;;;;;;;;;;;25.00;81.90;;;;;;5093499;28;20108;-62
2022/08/19 01:45:00;;;;;;;;;;;25.00;81.80;;;;;;5093891;28;19908;-62
2022/08/19 01:47:25;;;;;;;;;;;25.00;81.80;;;;;;5093390;28;20003;-62
2022/08/19 01:49:51;;;;;;;;;;;25.00;81.80;;;;;;5075773;28;19908;-62
2022/08/19 01:52:16;;;;;;;;;;;25.00;81.80;;;;;;5093447;28;20358;-62
2022/08/19 01:54:42;;;;;;;;;;;25.00;81.80;;;;;;5075613;28;19909;-62
2022/08/19 01:57:10;;;;;;;;;;;25.00;81.90;;;;;;5093403;28;19912;-62
2022/08/19 01:59:36;;;;;;;;;;;25.00;81.90;;;;;;5093630;28;19916;-62
2022/08/19 02:02:03;;;;;;;;;;;25.00;81.80;;;;;;5093816;28;19915;-62
2022/08/19 02:04:29;;;;;;;;;;;25.10;81.80;;;;;;5093720;28;20007;-62
2022/08/19 02:06:54;;;;;;;;;;;25.00;81.80;;;;;;5093576;28;20012;-62
2022/08/19 02:09:20;;;;;;;;;;;25.00;81.80;;;;;;5093629;28;20359;-62
2022/08/19 02:11:45;;;;;;;;;;;25.00;81.80;;;;;;5093621;28;20425;-62
2022/08/19 02:14:11;;;;;;;;;;;25.00;81.80;;;;;;5094109;28;19961;-62
2022/08/19 02:16:37;;;;;;;;;;;25.00;81.90;;;;;;5097421;28;20312;-62
2022/08/19 02:19:03;;;;;;;;;;;25.00;81.80;;;;;;5097210;28;19919;-62
2022/08/19 02:21:28;;;;;;;;;;;25.00;82.40;;;;;;5096892;28;19908;-62
2022/08/19 02:23:55;;;;;;;;;;;25.00;81.90;;;;;;5097214;28;19915;-62
2022/08/19 02:26:20;;;;;;;;;;;25.00;81.90;;;;;;5096831;28;20006;-62
2022/08/19 02:28:46;;;;;;;;;;;25.00;81.90;;;;;;5097358;28;19958;-62
2022/08/19 02:31:12;;;;;;;;;;;25.00;81.80;;;;;;5097005;28;19915;-62
2022/08/19 02:33:38;;;;;;;;;;;25.00;81.90;;;;;;5096875;28;19931;-62
2022/08/19 02:36:05;;;;;;;;;;;25.00;81.80;;;;;;5097147;28;19912;-62
2022/08/19 02:38:30;;;;;;;;;;;25.00;81.80;;;;;;5096906;28;19951;-62
2022/08/19 02:40:58;;;;;;;;;;;25.00;81.80;;;;;;5097240;28;20409;-62
2022/08/19 02:43:24;;;;;;;;;;;25.00;81.80;;;;;;5096470;28;20388;-61
2022/08/19 02:45:51;;;;;;;;;;;25.00;81.90;;;;;;5096690;28;20343;-62
2022/08/19 02:48:18;;;;;;;;;;;25.00;81.90;;;;;;5096924;28;19908;-62
2022/08/19 02:50:44;;;;;;;;;;;24.90;81.80;;;;;;5078441;28;19973;-62
2022/08/19 02:53:09;;;;;;;;;;;24.90;81.80;;;;;;5096254;28;20386;-62
2022/08/19 02:55:35;;;;;;;;;;;25.00;81.90;;;;;;5096304;28;19908;-62
2022/08/19 02:58:00;;;;;;;;;;;25.00;81.90;;;;;;5096283;28;19965;-62
2022/08/19 03:00:26;;;;;;;;;;;25.00;81.90;;;;;;5096012;28;20329;-62
2022/08/19 03:02:52;;;;;;;;;;;25.00;81.90;;;;;;5096274;28;20010;-62
2022/08/19 03:05:18;;;;;;;;;;;24.90;81.80;;;;;;5078128;28;19958;-62
2022/08/19 03:07:43;;;;;;;;;;;25.00;81.90;;;;;;5077998;28;20306;-62
2022/08/19 03:10:09;;;;;;;;;;;25.00;81.80;;;;;;5096085;28;19909;-62
2022/08/19 03:12:35;;;;;;;;;;;25.00;81.90;;;;;;5096014;28;19908;-62
2022/08/19 03:15:04;;;;;;;;;;;24.90;81.90;;;;;;5077303;28;20316;-62
2022/08/19 03:17:29;;;;;;;;;;;24.90;81.90;;;;;;5077820;28;19935;-62
2022/08/19 03:19:55;;;;;;;;;;;25.00;81.90;;;;;;5096312;28;20351;-61
2022/08/19 03:22:20;;;;;;;;;;;25.00;81.90;;;;;;5095971;28;19908;-61
2022/08/19 03:24:46;;;;;;;;;;;24.90;81.90;;;;;;5077358;28;19969;-61
2022/08/19 03:27:12;;;;;;;;;;;25.00;81.90;;;;;;5077706;28;19947;-61
2022/08/19 03:29:37;;;;;;;;;;;25.00;81.90;;;;;;5095618;28;19908;-61
2022/08/19 03:32:04;;;;;;;;;;;25.00;81.90;;;;;;5095788;28;19909;-61
2022/08/19 03:34:30;;;;;;;;;;;25.00;81.90;;;;;;5095506;28;19908;-61
2022/08/19 03:36:57;;;;;;;;;;;25.00;81.90;;;;;;5095429;28;19913;-61
2022/08/19 03:39:23;;;;;;;;;;;25.00;81.90;;;;;;5095501;28;20343;-61
2022/08/19 03:41:49;;;;;;;;;;;25.00;81.80;;;;;;5095501;28;19908;-61
2022/08/19 03:44:20;;;;;;;;;;;25.00;81.90;;;;;;5077115;28;19999;-61
2022/08/19 03:46:47;;;;;;;;;;;25.00;81.80;;;;;;5077382;28;19908;-61
2022/08/19 03:49:12;;;;;;;;;;;25.00;81.90;;;;;;5095460;28;19908;-61
2022/08/19 03:51:38;;;;;;;;;;;24.90;81.80;;;;;;5095197;28;19908;-61
2022/08/19 03:54:06;;;;;;;;;;;24.90;81.90;;;;;;5095307;28;19919;-61
2022/08/19 03:56:33;;;;;;;;;;;24.90;81.90;;;;;;5095175;28;20330;-61
2022/08/19 03:58:59;;;;;;;;;;;24.90;81.90;;;;;;5095027;28;19920;-61
2022/08/19 04:01:28;;;;;;;;;;;24.90;81.90;;;;;;5095535;28;20017;-62
2022/08/19 04:03:57;;;;;;;;;;;24.90;82.00;;;;;;5095330;28;19928;-62
2022/08/19 04:06:24;;;;;;;;;;;24.90;81.90;;;;;;5095006;28;19912;-62
2022/08/19 04:08:51;;;;;;;;;;;24.90;81.90;;;;;;5076804;28;19982;-62
2022/08/19 04:11:20;;;;;;;;;;;24.90;81.90;;;;;;5076769;28;19912;-61
2022/08/19 04:13:45;;;;;;;;;;;24.90;81.90;;;;;;5094996;28;20266;-61
2022/08/19 04:16:11;;;;;;;;;;;24.90;81.90;;;;;;5094605;28;19908;-61
2022/08/19 04:18:38;;;;;;;;;;;24.90;81.90;;;;;;5094892;28;19919;-61
2022/08/19 04:21:04;;;;;;;;;;;24.90;81.90;;;;;;5094818;28;19908;-61
2022/08/19 04:23:29;;;;;;;;;;;24.90;81.90;;;;;;5094745;28;19990;-61
2022/08/19 04:25:55;;;;;;;;;;;24.90;81.90;;;;;;5094414;28;19958;-62
2022/08/19 04:28:21;;;;;;;;;;;24.90;81.90;;;;;;5094732;28;19909;-62
2022/08/19 04:30:48;;;;;;;;;;;24.90;81.90;;;;;;5094490;28;19908;-62
2022/08/19 04:33:15;;;;;;;;;;;24.90;81.80;;;;;;5094316;28;20028;-62
2022/08/19 04:35:42;;;;;;;;;;;24.90;81.80;;;;;;5094925;28;19908;-62
2022/08/19 04:38:08;;;;;;;;;;;24.90;81.90;;;;;;5093594;28;19912;-62
2022/08/19 04:43:18;;;;;;;;;;;25.00;81.90;;;;;;5094295;28;20274;-62
2022/08/19 04:45:44;;;;;;;;;;;25.00;81.90;;;;;;5094310;28;19912;-62
2022/08/19 04:48:10;;;;;;;;;;;24.90;81.90;;;;;;5094423;28;19908;-62
2022/08/19 04:50:36;;;;;;;;;;;25.00;82.00;;;;;;5075992;28;20020;-62
2022/08/19 04:53:01;;;;;;;;;;;24.90;81.90;;;;;;5094262;28;19951;-62
2022/08/19 04:55:27;;;;;;;;;;;24.90;82.00;;;;;;5094233;28;20285;-62
2022/08/19 04:57:53;;;;;;;;;;;24.90;81.90;;;;;;5094210;28;19912;-62
2022/08/19 05:00:19;;;;;;;;;;;24.90;82.00;;;;;;5093888;28;19912;-62
2022/08/19 05:02:44;;;;;;;;;;;24.90;82.00;;;;;;5072634;28;20299;-62
2022/08/19 05:05:10;;;;;;;;;;;24.90;82.10;;;;;;5073567;28;19913;-62
2022/08/19 05:07:36;;;;;;;;;;;24.90;82.00;;;;;;5073515;28;19909;-62
2022/08/19 05:10:02;;;;;;;;;;;24.90;82.00;;;;;;5073615;28;19912;-62
2022/08/19 05:12:28;;;;;;;;;;;24.90;82.00;;;;;;5072604;28;19915;-62
2022/08/19 05:14:54;;;;;;;;;;;24.90;82.00;;;;;;5073768;28;19912;-62
2022/08/19 05:17:19;;;;;;;;;;;24.90;82.00;;;;;;5073412;28;19912;-62
2022/08/19 05:22:34;;;;;;;;;;;24.90;81.90;;;;;;5073542;28;19954;-62
2022/08/19 05:25:02;;;;;;;;;;;24.90;82.00;;;;;;5073946;28;19919;-62
2022/08/19 05:27:27;;;;;;;;;;;24.90;82.00;;;;;;5073460;28;19962;-62
2022/08/19 05:29:53;;;;;;;;;;;24.90;81.90;;;;;;5073262;28;19908;-62
2022/08/19 05:32:19;;;;;;;;;;;24.90;81.90;;;;;;5073645;28;19908;-62
2022/08/19 05:34:44;;;;;;;;;;;24.90;81.90;;;;;;5072228;28;20271;-62
2022/08/19 05:37:10;;;;;;;;;;;24.90;81.90;;;;;;5072975;28;19920;-62
2022/08/19 05:39:37;;;;;;;;;;;24.90;81.90;;;;;;5073214;28;20343;-62
2022/08/19 05:42:06;;;;;;;;;;;24.90;81.90;;;;;;5073278;28;20449;-61
2022/08/19 05:44:33;;;;;;;;;;;24.90;81.90;;;;;;5073447;28;19909;-62
2022/08/19 05:46:59;;;;;;;;;;;24.90;81.90;;;;;;5071587;28;20304;-62
2022/08/19 05:49:25;;;;;;;;;;;24.90;81.90;;;;;;5075040;28;19908;-62
2022/08/19 05:51:51;;;;;;;;;;;24.90;81.90;;;;;;5077217;28;19954;-62
2022/08/19 05:54:17;;;;;;;;;;;24.90;81.90;;;;;;5077319;28;20290;-62
2022/08/19 05:56:43;;;;;;;;;;;24.90;81.90;;;;;;5076027;28;20296;-62
2022/08/19 05:59:11;;;;;;;;;;;24.90;81.90;;;;;;5077067;28;20003;-62
2022/08/19 06:01:37;;;;;;;;;;;24.90;81.90;;;;;;5075802;28;19921;-62
2022/08/19 06:04:03;;;;;;;;;;;24.90;81.90;;;;;;5094602;28;19920;-62
2022/08/19 06:06:29;;;;;;;;;;;24.90;82.00;;;;;;5097148;28;19985;-61
2022/08/19 06:08:54;;;;;;;;;;;24.90;81.90;;;;;;5097222;28;19908;-62
2022/08/19 06:11:21;;;;;;;;;;;24.90;81.90;;;;;;5097364;28;19954;-62
2022/08/19 06:13:50;;;;;;;;;;;24.90;81.90;;;;;;5096778;28;19912;-62
2022/08/19 06:16:24;;;;;;;;;;;24.90;82.00;;;;;;5097072;28;20357;-61
2022/08/19 06:18:53;;;;;;;;;;;24.90;81.90;;;;;;5096883;28;19912;-62
2022/08/19 06:21:20;;;;;;;;;;;24.90;82.00;;;;;;5096677;28;19915;-62
2022/08/19 06:23:47;;;;;;;;;;;24.90;82.00;;;;;;5096894;28;20343;-62
2022/08/19 06:26:13;;;;;;;;;;;24.90;81.90;;;;;;5096568;28;20247;-62
2022/08/19 06:28:42;;;;;;;;;;;24.90;81.90;;;;;;5078780;28;19950;-62
2022/08/19 06:31:08;;;;;;;;;;;24.90;82.00;;;;;;5078677;28;19908;-62
2022/08/19 06:33:33;;;;;;;;;;;24.90;82.00;;;;;;5096618;28;19912;-62
2022/08/19 06:35:59;;;;;;;;;;;24.90;82.00;;;;;;5096641;28;19908;-61
2022/08/19 06:38:24;;;;;;;;;;;24.90;82.00;;;;;;5096316;28;19916;-61
2022/08/19 06:40:50;;;;;;;;;;;24.90;82.00;;;;;;5096242;28;20377;-62
2022/08/19 06:43:15;;;;;;;;;;;24.90;82.00;;;;;;5078419;28;20354;-61
2022/08/19 06:45:42;;;;;;;;;;;24.90;81.90;;;;;;5096573;28;19914;-62
2022/08/19 06:48:07;;;;;;;;;;;24.90;82.00;;;;;;5096188;28;20359;-62
2022/08/19 06:50:33;;;;;;;;;;;24.90;82.00;;;;;;5096423;28;19984;-62
2022/08/19 06:52:58;;;;;;;;;;;24.90;82.00;;;;;;5096403;28;20329;-61
2022/08/19 06:55:24;;;;;;;;;;;24.90;82.00;;;;;;5096065;28;19916;-61
2022/08/19 06:57:50;;;;;;;;;;;24.90;82.00;;;;;;5095944;28;19947;-62
2022/08/19 07:00:16;;;;;;;;;;;24.90;81.90;;;;;;5095151;28;19912;-62
2022/08/19 07:02:42;;;;;;;;;;;24.90;81.90;;;;;;5095757;28;19920;-61
2022/08/19 07:05:07;;;;;;;;;;;24.90;81.90;;;;;;5095947;28;19908;-62
2022/08/19 07:07:33;;;;;;;;;;;24.90;81.90;;;;;;5095619;28;20235;-61
2022/08/19 07:09:59;;;;;;;;;;;24.90;81.90;;;;;;5096080;28;20286;-61
2022/08/19 07:12:25;;;;;;;;;;;24.90;81.90;;;;;;5095956;28;19915;-61
2022/08/19 07:14:52;;;;;;;;;;;24.90;82.00;;;;;;5077723;28;19915;-62
2022/08/19 07:17:19;;;;;;;;;;;24.90;82.00;;;;;;5077559;28;19939;-62
2022/08/19 07:19:45;;;;;;;;;;;24.90;82.00;;;;;;5095291;28;20260;-62
2022/08/19 07:22:11;;;;;;;;;;;24.90;82.00;;;;;;5095402;28;19977;-62
2022/08/19 07:24:36;;;;;;;;;;;24.90;82.50;;;;;;5095861;28;19922;-61
2022/08/19 07:27:04;;;;;;;;;;;24.90;82.00;;;;;;5111493;28;19908;-62
2022/08/19 07:29:32;;;;;;;;;;;24.90;82.00;;;;;;5095900;28;19909;-62
2022/08/19 07:31:58;;;;;;;;;;;24.90;82.00;;;;;;5077535;28;20343;-61
2022/08/19 07:34:25;;;;;;;;;;;24.90;82.00;;;;;;5095985;28;19919;-61
2022/08/19 07:36:50;;;;;;;;;;;24.90;82.00;;;;;;5095172;28;19912;-62
2022/08/19 07:39:19;;;;;;;;;;;24.90;82.00;;;;;;5095512;28;19912;-62
2022/08/19 07:41:45;;;;;;;;;;;24.90;82.00;;;;;;5095237;28;19912;-62
2022/08/19 07:44:12;;;;;;;;;;;24.90;82.00;;;;;;5095250;28;19908;-62
2022/08/19 07:46:40;;;;;;;;;;;24.90;82.00;;;;;;5095310;28;19930;-62
2022/08/19 07:49:06;;;;;;;;;;;24.90;82.00;;;;;;5095401;28;19995;-62
2022/08/19 07:51:31;;;;;;;;;;;24.90;82.10;;;;;;5076961;28;20285;-62
2022/08/19 07:53:57;;;;;;;;;;;24.90;82.00;;;;;;5077072;28;20007;-62
2022/08/19 07:56:22;;;;;;;;;;;24.90;82.10;;;;;;5094937;28;19916;-62
2022/08/19 07:58:49;;;;;;;;;;;24.90;82.00;;;;;;5095163;28;19912;-62
2022/08/19 08:01:22;;;;;;;;;;;24.90;82.10;;;;;;5094780;28;19908;-62
2022/08/19 08:09:21;;;;;;;;;;;24.90;82.00;;;;;;5094840;28;19993;-62
2022/08/19 08:11:54;;;;;;;;;;;24.90;82.10;;;;;;5076633;28;19908;-62
2022/08/19 08:14:24;;;;;;;;;;;24.90;82.10;;;;;;5094554;28;19908;-62
2022/08/19 08:16:51;;;;;;;;;;;24.90;82.10;;;;;;5076136;28;19919;-62
2022/08/19 08:19:17;;;;;;;;;;;24.90;82.10;;;;;;5076648;28;19912;-62
2022/08/19 08:21:43;;;;;;;;;;;24.90;82.10;;;;;;5076588;28;19908;-62
2022/08/19 08:24:09;;;;;;;;;;;24.90;82.10;;;;;;5094577;28;19908;-62
2022/08/19 08:26:34;;;;;;;;;;;24.90;82.10;;;;;;5094494;28;19908;-62
2022/08/19 08:29:00;;;;;;;;;;;24.90;82.10;;;;;;5075973;28;20327;-62
2022/08/19 08:31:26;;;;;;;;;;;24.90;82.10;;;;;;5094232;28;19908;-62
2022/08/19 08:33:51;;;;;;;;;;;24.90;82.10;;;;;;5094446;28;20292;-62
2022/08/19 08:36:17;;;;;;;;;;;24.90;82.10;;;;;;5094276;28;19908;-62
2022/08/19 08:38:46;;;;;;;;;;;24.90;82.10;;;;;;5076205;28;19919;-62
2022/08/19 08:41:30;;;;;;;;;;;24.90;82.10;;;;;;5094256;28;19908;-62
2022/08/19 08:43:56;;;;;;;;;;;24.90;82.10;;;;;;5094077;28;20363;-62
2022/08/19 08:46:26;;;;;;;;;;;24.90;82.10;;;;;;5094241;28;20053;-63
2022/08/19 08:48:55;;;;;;;;;;;24.90;82.10;;;;;;5094389;28;19954;-63
2022/08/19 08:51:27;;;;;;;;;;;24.90;82.70;;;;;;5094299;28;19984;-62
2022/08/19 08:53:53;;;;;;;;;;;24.90;82.20;;;;;;5093877;28;19908;-62
2022/08/19 08:56:19;;;;;;;;;;;24.90;82.20;;;;;;5075899;28;19908;-62
2022/08/19 08:58:54;;;;;;;;;;;24.90;82.20;;;;;;5094025;28;19965;-62
2022/08/19 09:01:20;;;;;;;;;;;24.80;82.20;;;;;;5093894;28;19908;-62
2022/08/19 09:03:45;;;;;;;;;;;24.80;82.20;;;;;;5093926;28;19927;-62
2022/08/19 09:06:11;;;;;;;;;;;24.90;82.30;;;;;;5094166;28;19908;-62
2022/08/19 09:08:45;;;;;;;;;;;24.80;82.20;;;;;;5093806;28;19908;-62
2022/08/19 09:11:15;;;;;;;;;;;24.90;82.30;;;;;;5075895;28;19908;-62
2022/08/19 09:14:00;;;;;;;;;;;24.80;82.30;;;;;;5094323;28;19953;-62
2022/08/19 09:16:27;;;;;;;;;;;24.80;82.20;;;;;;5094185;28;20304;-62
2022/08/19 09:18:54;;;;;;;;;;;24.80;82.20;;;;;;5093789;28;20382;-62
2022/08/19 09:21:22;;;;;;;;;;;24.80;82.30;;;;;;5094053;28;19908;-62
2022/08/19 09:23:49;;;;;;;;;;;24.90;82.20;;;;;;5097311;28;19915;-62
2022/08/19 09:26:16;;;;;;;;;;;24.90;82.30;;;;;;5082279;28;19919;-62
2022/08/19 09:28:45;;;;;;;;;;;24.80;82.20;;;;;;5100290;28;20012;-62
2022/08/19 09:31:12;;;;;;;;;;;24.80;82.20;;;;;;5100618;28;19908;-62
2022/08/19 09:33:38;;;;;;;;;;;24.80;82.20;;;;;;5099986;28;19908;-62
2022/08/19 09:36:07;;;;;;;;;;;24.80;82.30;;;;;;5100158;28;20007;-62
2022/08/19 09:38:34;;;;;;;;;;;24.80;82.30;;;;;;5100179;28;19917;-62
2022/08/19 09:41:06;;;;;;;;;;;24.80;82.20;;;;;;5100407;28;20380;-62
2022/08/19 09:43:33;;;;;;;;;;;24.80;82.20;;;;;;5100191;28;19908;-62
2022/08/19 09:46:00;;;;;;;;;;;24.80;82.20;;;;;;5100481;28;19984;-62
2022/08/19 09:48:25;;;;;;;;;;;24.80;82.20;;;;;;5100127;28;19947;-62
2022/08/19 09:50:51;;;;;;;;;;;24.80;82.20;;;;;;5100213;28;19947;-62
2022/08/19 09:53:17;;;;;;;;;;;24.80;82.20;;;;;;5100291;28;20291;-62
2022/08/19 09:55:43;;;;;;;;;;;24.80;82.20;;;;;;5099832;28;19956;-63
2022/08/19 09:58:08;;;;;;;;;;;24.80;82.20;;;;;;5100214;28;19912;-62
2022/08/19 10:00:36;;;;;;;;;;;24.80;82.20;;;;;;5100313;28;19916;-62
2022/08/19 10:03:02;;;;;;;;;;;24.80;82.20;;;;;;5100244;28;19920;-62
2022/08/19 10:08:11;;;;;;;;;;;24.80;82.10;;;;;;5099985;28;20342;-62
2022/08/19 10:10:37;;;;;;;;;;;24.90;82.10;;;;;;5082147;28;19908;-62
2022/08/19 10:13:03;;;;;;;;;;;24.90;82.10;;;;;;5099886;28;19908;-62
2022/08/19 10:15:29;;;;;;;;;;;24.90;82.20;;;;;;5115774;28;19908;-62
2022/08/19 10:17:55;;;;;;;;;;;24.90;82.20;;;;;;5099973;28;19919;-63
2022/08/19 10:20:22;;;;;;;;;;;24.90;82.20;;;;;;5100075;28;20351;-62
2022/08/19 10:22:48;;;;;;;;;;;24.90;82.20;;;;;;5082181;28;19908;-62
2022/08/19 10:25:17;;;;;;;;;;;24.90;82.20;;;;;;5099998;28;19912;-62
2022/08/19 10:27:42;;;;;;;;;;;24.90;82.20;;;;;;5100306;28;19908;-62
2022/08/19 10:30:08;;;;;;;;;;;25.00;82.20;;;;;;5100066;28;20416;-62
2022/08/19 10:32:34;;;;;;;;;;;24.90;82.10;;;;;;5099957;28;20412;-62
2022/08/19 10:35:00;;;;;;;;;;;25.00;82.20;;;;;;5096882;28;19915;-62
2022/08/19 10:37:25;;;;;;;;;;;24.90;82.00;;;;;;5096578;28;19938;-62
2022/08/19 10:39:51;;;;;;;;;;;24.90;82.10;;;;;;5096488;28;19912;-62
2022/08/19 10:42:18;;;;;;;;;;;24.90;82.10;;;;;;5096576;28;19947;-62
2022/08/19 10:44:44;;;;;;;;;;;25.00;82.10;;;;;;5096799;28;19916;-62
2022/08/19 10:47:10;;;;;;;;;;;24.90;82.10;;;;;;5096575;28;19908;-62
2022/08/19 10:52:33;;;;;;;;;;;24.90;82.10;;;;;;5077990;28;19912;-62
2022/08/19 10:52:33;;;;;;;;;;;24.90;82.10;;;;;;5096120;28;19908;-62
2022/08/19 10:57:43;;;;;;;;;;;25.00;82.20;;;;;;5095894;28;19981;-62
2022/08/19 11:00:09;;;;;;;;;;;24.90;82.20;;;;;;5096040;28;20422;-62
2022/08/19 11:02:35;;;;;;;;;;;25.00;82.30;;;;;;5096006;28;19927;-62
2022/08/19 11:05:00;;;;;;;;;;;25.00;82.20;;;;;;5095944;28;19919;-62
2022/08/19 11:07:26;;;;;;;;;;;25.00;82.20;;;;;;5095838;28;20283;-62
2022/08/19 11:09:51;;;;;;;;;;;25.00;82.20;;;;;;5095677;28;19916;-62
2022/08/19 11:12:17;;;;;;;;;;;25.00;82.20;;;;;;5078066;28;19974;-62
2022/08/19 11:14:42;;;;;;;;;;;24.90;82.20;;;;;;5095784;28;19914;-62
2022/08/19 11:17:08;;;;;;;;;;;24.90;82.20;;;;;;5095876;28;19918;-61
2022/08/19 11:19:34;;;;;;;;;;;25.00;82.20;;;;;;5095991;28;19916;-62
2022/08/19 11:22:01;;;;;;;;;;;25.00;82.20;;;;;;5095692;28;19970;-62
2022/08/19 11:24:27;;;;;;;;;;;25.00;82.10;;;;;;5095924;28;20305;-62
2022/08/19 11:26:58;;;;;;;;;;;25.00;82.20;;;;;;5095368;28;20425;-62
2022/08/19 11:29:25;;;;;;;;;;;25.00;82.80;;;;;;5095640;28;19911;-62
2022/08/19 11:31:51;;;;;;;;;;;25.00;82.20;;;;;;5095746;28;19912;-62
2022/08/19 11:34:19;;;;;;;;;;;25.00;82.20;;;;;;5077483;28;20421;-62
2022/08/19 11:36:47;;;;;;;;;;;25.00;82.20;;;;;;5095492;28;19915;-62
2022/08/19 11:39:15;;;;;;;;;;;25.00;82.20;;;;;;5095298;28;19957;-62
2022/08/19 11:41:40;;;;;;;;;;;25.00;82.20;;;;;;5095546;28;19909;-62
2022/08/19 11:44:07;;;;;;;;;;;25.00;82.20;;;;;;5095594;28;19908;-62
2022/08/19 11:46:33;;;;;;;;;;;25.00;82.20;;;;;;5095061;28;19908;-62
2022/08/19 11:49:00;;;;;;;;;;;25.00;82.20;;;;;;5077336;28;19980;-62
2022/08/19 11:51:26;;;;;;;;;;;25.00;82.20;;;;;;5077292;28;19951;-61
2022/08/19 11:53:52;;;;;;;;;;;25.00;82.20;;;;;;5094955;28;19908;-62
2022/08/19 11:56:18;;;;;;;;;;;25.00;82.20;;;;;;5094824;28;19908;-62
2022/08/19 11:58:44;;;;;;;;;;;25.00;82.20;;;;;;5076767;28;19923;-62
2022/08/19 12:01:15;;;;;;;;;;;25.00;82.20;;;;;;5095394;28;19908;-62
2022/08/19 12:03:41;;;;;;;;;;;25.00;82.20;;;;;;5095074;28;19920;-61
2022/08/19 12:06:13;;;;;;;;;;;25.00;82.20;;;;;;5094593;28;19958;-62
2022/08/19 12:08:39;;;;;;;;;;;25.00;82.20;;;;;;5094932;28;19955;-62
2022/08/19 12:11:07;;;;;;;;;;;25.00;82.20;;;;;;5094664;28;19912;-62
2022/08/19 12:13:34;;;;;;;;;;;25.00;82.20;;;;;;5094818;28;19908;-62
2022/08/19 12:16:00;;;;;;;;;;;25.00;82.20;;;;;;5076588;28;19908;-62
2022/08/19 12:18:25;;;;;;;;;;;25.00;82.20;;;;;;5076315;28;19934;-62
2022/08/19 12:20:51;;;;;;;;;;;25.00;82.20;;;;;;5094506;28;19912;-62
2022/08/19 12:23:17;;;;;;;;;;;25.00;82.20;;;;;;5094786;28;20347;-62
2022/08/19 12:25:51;;;;;;;;;;;25.00;82.20;;;;;;5076445;28;20002;-62
2022/08/19 12:28:18;;;;;;;;;;;25.00;82.20;;;;;;5094313;28;19915;-62
2022/08/19 12:30:43;;;;;;;;;;;25.00;82.20;;;;;;5094911;28;19908;-61
2022/08/19 12:33:09;;;;;;;;;;;25.00;82.20;;;;;;5094315;28;20007;-62
2022/08/19 12:35:35;;;;;;;;;;;25.00;82.20;;;;;;5094135;28;19999;-62
2022/08/19 12:38:02;;;;;;;;;;;25.00;82.20;;;;;;5094033;28;20361;-61
2022/08/19 12:40:28;;;;;;;;;;;25.00;82.20;;;;;;5094336;28;19912;-62
2022/08/19 12:42:53;;;;;;;;;;;25.00;82.20;;;;;;5093923;28;20007;-62
2022/08/19 12:45:19;;;;;;;;;;;25.00;82.20;;;;;;5094061;28;19909;-62
2022/08/19 12:47:46;;;;;;;;;;;25.00;82.20;;;;;;5075984;28;19957;-62
2022/08/19 12:50:11;;;;;;;;;;;25.00;82.20;;;;;;5094286;28;19982;-62
2022/08/19 12:52:37;;;;;;;;;;;25.00;82.30;;;;;;5094141;28;19955;-61
2022/08/19 12:55:03;;;;;;;;;;;25.10;82.30;;;;;;5093827;28;19915;-62
2022/08/19 12:57:32;;;;;;;;;;;25.00;82.20;;;;;;5075433;28;20287;-61
2022/08/19 13:00:06;;;;;;;;;;;25.00;82.20;;;;;;5093626;28;19964;-62
2022/08/19 13:02:32;;;;;;;;;;;25.00;82.20;;;;;;5075587;28;19920;-62
2022/08/19 13:04:58;;;;;;;;;;;25.00;82.30;;;;;;5093666;28;20347;-62
2022/08/19 13:07:23;;;;;;;;;;;25.10;82.40;;;;;;5093535;28;19908;-62
2022/08/19 13:09:51;;;;;;;;;;;25.00;82.30;;;;;;5093728;28;19915;-62
2022/08/19 13:12:16;;;;;;;;;;;25.10;82.30;;;;;;5075992;28;19908;-62
2022/08/19 13:14:42;;;;;;;;;;;25.00;82.30;;;;;;5094246;28;19953;-62
2022/08/19 13:17:08;;;;;;;;;;;25.00;82.30;;;;;;5093758;28;19912;-62
2022/08/19 13:19:36;;;;;;;;;;;25.10;82.40;;;;;;5075538;28;19965;-61
2022/08/19 13:22:01;;;;;;;;;;;25.10;82.40;;;;;;5075592;28;19912;-62
2022/08/19 13:24:27;;;;;;;;;;;25.00;82.20;;;;;;5093325;28;19912;-62
2022/08/19 13:26:52;;;;;;;;;;;25.00;82.20;;;;;;5093609;28;19908;-61
2022/08/19 13:34:46;;;;;;;;;;;25.10;82.40;;;;;;5093689;28;19916;-62
2022/08/19 13:37:12;;;;;;;;;;;25.10;82.40;;;;;;5093331;28;19913;-62
2022/08/19 13:39:38;;;;;;;;;;;25.10;82.40;;;;;;5094090;28;19912;-62
2022/08/19 13:42:04;;;;;;;;;;;25.10;82.40;;;;;;5093721;28;20374;-62
2022/08/19 13:44:30;;;;;;;;;;;25.00;82.30;;;;;;5093161;28;19908;-62
2022/08/19 13:47:06;;;;;;;;;;;25.10;82.40;;;;;;5093299;28;19919;-62
2022/08/19 13:49:32;;;;;;;;;;;25.00;82.40;;;;;;5075350;28;19961;-62
2022/08/19 13:51:58;;;;;;;;;;;25.00;82.40;;;;;;5075579;28;20010;-62
2022/08/19 13:54:23;;;;;;;;;;;25.00;82.40;;;;;;5075069;28;20136;-62
2022/08/19 13:56:49;;;;;;;;;;;25.00;82.40;;;;;;5093520;28;19912;-62
2022/08/19 13:59:14;;;;;;;;;;;25.10;82.40;;;;;;5093232;28;19960;-62
2022/08/19 14:01:40;;;;;;;;;;;25.10;82.40;;;;;;5093783;28;20347;-62
2022/08/19 14:04:06;;;;;;;;;;;25.00;82.30;;;;;;5093570;28;19920;-62
2022/08/19 14:06:32;;;;;;;;;;;25.00;82.30;;;;;;5093201;28;19908;-62
2022/08/19 14:08:58;;;;;;;;;;;25.10;82.40;;;;;;5093626;28;19931;-62
2022/08/19 14:11:24;;;;;;;;;;;25.00;82.30;;;;;;5097448;28;19913;-62
2022/08/19 14:13:50;;;;;;;;;;;25.10;82.40;;;;;;5097094;28;19992;-62
2022/08/19 14:16:15;;;;;;;;;;;25.10;82.40;;;;;;5097046;28;19908;-62
2022/08/19 14:18:41;;;;;;;;;;;25.10;82.40;;;;;;5078965;28;19916;-62
2022/08/19 14:21:07;;;;;;;;;;;25.10;82.40;;;;;;5096768;28;19915;-62
2022/08/19 14:23:33;;;;;;;;;;;25.10;82.50;;;;;;5097321;28;20254;-62
2022/08/19 14:26:03;;;;;;;;;;;25.10;82.50;;;;;;5097003;28;19908;-62
2022/08/19 14:28:30;;;;;;;;;;;25.10;82.50;;;;;;5096964;28;19908;-62
2022/08/19 14:30:55;;;;;;;;;;;25.10;82.40;;;;;;5096934;28;19908;-62
2022/08/19 14:33:20;;;;;;;;;;;25.10;82.50;;;;;;5096706;28;19908;-62
2022/08/19 14:35:46;;;;;;;;;;;25.10;82.50;;;;;;5097142;28;20251;-62